createdAt,value
2023-03-04T00:00:02.596Z,0.82
2023-03-04T00:05:02.325Z,0.91
2023-03-04T00:10:02.270Z,0.89
2023-03-04T00:15:03.052Z,0.9
2023-03-04T00:20:02.876Z,0.89
2023-03-04T00:25:02.722Z,0.76
2023-03-04T00:30:02.450Z,0.76
2023-03-04T00:35:03.101Z,0.74
2023-03-04T00:40:02.704Z,0.82
2023-03-04T00:45:02.450Z,0.81
2023-03-04T00:50:02.236Z,0.79
2023-03-04T00:55:03.835Z,0.78
2023-03-04T01:00:03.112Z,0.51
2023-03-04T01:05:02.708Z,0.42
2023-03-04T01:10:02.657Z,0.49
2023-03-04T01:15:03.221Z,0.63
2023-03-04T01:20:02.992Z,0.76
2023-03-04T01:25:03.033Z,0.78
2023-03-04T01:30:02.947Z,0.84
2023-03-04T01:35:02.631Z,0.91
2023-03-04T01:40:02.573Z,0.89
2023-03-04T01:45:02.414Z,0.97
2023-03-04T01:50:03.137Z,1.15
2023-03-04T01:55:03.792Z,1.21
2023-03-04T02:00:02.731Z,1.22
2023-03-04T02:05:02.396Z,1.19
2023-03-04T02:10:02.280Z,1.28
2023-03-04T02:15:02.507Z,1.35
2023-03-04T02:20:02.527Z,1.32
2023-03-04T02:25:02.408Z,1.28
2023-03-04T02:30:03.108Z,1.2
2023-03-04T02:35:02.205Z,1.23
2023-03-04T02:40:02.941Z,1.16
2023-03-04T02:45:02.675Z,1.13
2023-03-04T02:50:02.324Z,1.15
2023-03-04T02:55:03.557Z,1.12
2023-03-04T03:00:02.837Z,1.05
2023-03-04T03:05:02.563Z,1.09
2023-03-04T03:10:02.529Z,1.06
2023-03-04T03:15:02.360Z,1.15
2023-03-04T03:20:03.138Z,1.13
2023-03-04T03:25:03.008Z,1.12
2023-03-04T03:30:03.122Z,1.17
2023-03-04T03:35:02.698Z,1.21
2023-03-04T03:40:02.435Z,1.21
2023-03-04T03:45:02.265Z,1.32
2023-03-04T03:50:02.192Z,1.32
2023-03-04T03:55:03.789Z,1.36
2023-03-04T04:00:03.128Z,1.38
2023-03-04T04:05:02.972Z,1.44
2023-03-04T04:10:02.940Z,1.43
2023-03-04T04:15:02.696Z,1.43
2023-03-04T04:20:02.452Z,1.42
2023-03-04T04:25:02.510Z,1.42
2023-03-04T04:30:02.323Z,1.3
2023-03-04T04:35:02.946Z,1.27
2023-03-04T04:40:02.577Z,1.26
2023-03-04T04:45:02.531Z,1.28
2023-03-04T04:50:02.261Z,1.32
2023-03-04T04:55:03.788Z,1.35
2023-03-04T05:00:02.868Z,1.41
2023-03-04T05:05:02.639Z,1.51
2023-03-04T05:10:02.634Z,1.49
2023-03-04T05:15:02.449Z,1.53
2023-03-04T05:20:02.290Z,1.58
2023-03-04T05:25:03.035Z,1.63
2023-03-04T05:30:02.715Z,1.63
2023-03-04T05:35:02.598Z,1.68
2023-03-04T05:40:02.338Z,1.71
2023-03-04T05:45:03.190Z,1.81
2023-03-04T05:50:02.988Z,1.88
2023-03-04T05:55:03.733Z,1.87
2023-03-04T06:00:02.607Z,1.93
2023-03-04T06:05:02.547Z,2.04
2023-03-04T06:10:02.283Z,2.16
2023-03-04T06:15:03.052Z,2.27
2023-03-04T06:20:02.771Z,2.31
2023-03-04T06:25:02.508Z,2.35
2023-03-04T06:30:02.507Z,2.35
2023-03-04T06:35:02.239Z,2.43
2023-03-04T06:40:03.063Z,2.42
2023-03-04T06:45:03.124Z,2.41
2023-03-04T06:50:03.120Z,2.47
2023-03-04T06:55:03.258Z,2.45
2023-03-04T07:00:02.531Z,2.47
2023-03-04T07:05:02.506Z,2.48
2023-03-04T07:10:02.273Z,2.5
2023-03-04T07:15:03.214Z,2.53
2023-03-04T07:20:03.074Z,2.57
2023-03-04T07:25:03.024Z,2.57
2023-03-04T07:30:02.838Z,2.62
2023-03-04T07:35:02.473Z,2.64
2023-03-04T07:40:03.195Z,2.7
2023-03-04T07:45:02.985Z,2.75
2023-03-04T07:50:02.777Z,2.8
2023-03-04T07:55:03.008Z,2.8
2023-03-04T08:00:02.285Z,2.86
2023-03-04T08:05:03.203Z,3.03
2023-03-04T08:10:03.280Z,2.97
2023-03-04T08:15:02.853Z,3.04
2023-03-04T08:20:02.549Z,3.04
2023-03-04T08:25:02.317Z,3.06
2023-03-04T08:30:02.407Z,3.2
2023-03-04T08:35:03.136Z,3.27
2023-03-04T08:40:02.883Z,3.21
2023-03-04T08:45:02.723Z,3.1
2023-03-04T08:50:02.313Z,3.17
2023-03-04T08:55:03.796Z,3.21
2023-03-04T09:00:02.241Z,3.39
2023-03-04T09:05:03.004Z,3.45
2023-03-04T09:10:02.998Z,3.72
2023-03-04T09:15:10.967Z,3.61
2023-03-04T09:20:04.470Z,3.71
2023-03-04T09:25:02.543Z,3.86
2023-03-04T09:30:02.430Z,4.07
2023-03-04T09:35:03.113Z,3.96
2023-03-04T09:40:02.907Z,4.13
2023-03-04T09:45:02.767Z,4.03
2023-03-04T09:50:02.637Z,4
2023-03-04T09:55:05.605Z,3.92
2023-03-04T10:00:02.268Z,4.01
2023-03-04T10:05:03.202Z,4.22
2023-03-04T10:10:02.844Z,4.16
2023-03-04T10:15:02.586Z,4.2
2023-03-04T10:20:02.454Z,4.01
2023-03-04T10:25:02.177Z,4.22
2023-03-04T10:30:03.019Z,4.41
2023-03-04T10:35:02.653Z,4.79
2023-03-04T10:40:02.438Z,4.96
2023-03-04T10:45:02.432Z,4.83
2023-03-04T10:50:03.046Z,4.97
2023-03-04T10:55:03.630Z,5.09
2023-03-04T11:00:03.078Z,5
2023-03-04T11:05:02.607Z,4.36
2023-03-04T11:10:02.643Z,4.37
2023-03-04T11:15:02.465Z,4.49
2023-03-04T11:20:02.327Z,4.75
2023-03-04T11:25:03.081Z,4.63
2023-03-04T11:30:02.838Z,4.66
2023-03-04T11:35:02.436Z,4.54
2023-03-04T11:40:02.277Z,4.53
2023-03-04T11:45:03.060Z,4.63
2023-03-04T11:50:02.716Z,4.9
2023-03-04T11:55:03.528Z,4.96
2023-03-04T12:00:02.616Z,5.01
2023-03-04T12:05:02.373Z,5.28
2023-03-04T12:10:03.179Z,5.51
2023-03-04T12:15:02.989Z,5.53
2023-03-04T12:20:02.681Z,5.54
2023-03-04T12:25:02.446Z,5.36
2023-03-04T12:30:03.130Z,5.45
2023-03-04T12:35:03.026Z,5.37
2023-03-04T12:40:02.851Z,5.27
2023-03-04T12:45:02.666Z,5.25
2023-03-04T12:50:02.441Z,5.21
2023-03-04T12:55:03.629Z,5.16
2023-03-04T13:00:02.919Z,5.19
2023-03-04T13:05:02.769Z,5.16
2023-03-04T13:10:02.299Z,5.02
2023-03-04T13:15:03.074Z,4.71
2023-03-04T13:20:02.877Z,4.71
2023-03-04T13:25:02.566Z,4.69
2023-03-04T13:30:02.310Z,4.92
2023-03-04T13:35:03.024Z,4.93
2023-03-04T13:40:02.774Z,4.85
2023-03-04T13:45:02.569Z,4.83
2023-03-04T13:50:02.365Z,4.93
2023-03-04T13:55:03.293Z,4.92
2023-03-04T14:00:03.064Z,4.88
2023-03-04T14:05:02.723Z,4.73
2023-03-04T14:10:02.613Z,4.81
2023-03-04T14:15:02.357Z,4.79
2023-03-04T14:20:02.736Z,4.76
2023-03-04T14:25:02.400Z,4.79
2023-03-04T14:30:02.383Z,4.75
2023-03-04T14:35:03.128Z,4.69
2023-03-04T14:40:02.979Z,4.76
2023-03-04T14:45:02.837Z,4.74
2023-03-04T14:50:02.508Z,4.73
2023-03-04T14:55:04.156Z,4.57
2023-03-04T15:00:02.840Z,4.45
2023-03-04T15:05:02.647Z,4.39
2023-03-04T15:10:02.336Z,4.32
2023-03-04T15:15:02.587Z,4.25
2023-03-04T15:20:02.345Z,4.25
2023-03-04T15:25:03.169Z,4.2
2023-03-04T15:30:02.873Z,4.12
2023-03-04T15:35:02.704Z,4.04
2023-03-04T15:40:02.539Z,4.05
2023-03-04T15:45:02.376Z,4.07
2023-03-04T15:50:03.107Z,3.9
2023-03-04T15:55:03.271Z,3.85
2023-03-04T16:00:02.712Z,3.92
2023-03-04T16:05:02.543Z,3.92
2023-03-04T16:10:02.308Z,3.84
2023-03-04T16:15:06.743Z,3.84
2023-03-04T16:20:02.280Z,3.8
2023-03-04T16:25:03.030Z,3.74
2023-03-04T16:30:02.872Z,3.64
2023-03-04T16:35:02.569Z,3.68
2023-03-04T16:40:02.344Z,3.62
2023-03-04T16:45:02.277Z,3.61
2023-03-04T16:50:03.557Z,3.61
2023-03-04T16:55:03.090Z,3.56
2023-03-04T17:00:03.093Z,3.54
2023-03-04T17:05:02.724Z,3.67
2023-03-04T17:10:02.565Z,3.66
2023-03-04T17:15:02.290Z,3.55
2023-03-04T17:20:03.060Z,3.5
2023-03-04T17:25:03.104Z,3.56
2023-03-04T17:30:02.837Z,3.48
2023-03-04T17:35:02.593Z,3.34
2023-03-04T17:40:02.359Z,3.22
2023-03-04T17:45:03.151Z,3.4
2023-03-04T17:50:02.871Z,3.39
2023-03-04T17:55:03.271Z,3.4
2023-03-04T18:00:02.518Z,3.33
2023-03-04T18:05:03.082Z,3.24
2023-03-04T18:10:02.238Z,3.19
2023-03-04T18:15:02.974Z,3.16
2023-03-04T18:20:02.864Z,3.21
2023-03-04T18:25:02.709Z,3.21
2023-03-04T18:30:02.724Z,3.11
2023-03-04T18:35:03.180Z,3.05
2023-03-04T18:40:02.958Z,3.08
2023-03-04T18:45:02.999Z,3.14
2023-03-04T18:50:02.720Z,3.09
2023-03-04T18:55:03.684Z,2.99
2023-03-04T19:00:02.863Z,3.01
2023-03-04T19:05:02.495Z,3.01
2023-03-04T19:10:03.182Z,2.98
2023-03-04T19:15:03.180Z,3
2023-03-04T19:20:02.700Z,2.88
2023-03-04T19:25:02.631Z,2.73
2023-03-04T19:30:03.194Z,2.7
2023-03-04T19:35:02.948Z,2.73
2023-03-04T19:40:02.170Z,2.69
2023-03-04T19:45:02.882Z,2.64
2023-03-04T19:50:02.791Z,2.69
2023-03-04T19:55:03.214Z,2.62
2023-03-04T20:00:02.546Z,2.6
2023-03-04T20:05:02.963Z,2.62
2023-03-04T20:10:02.751Z,2.55
2023-03-04T20:15:02.759Z,2.58
2023-03-04T20:20:02.713Z,2.53
2023-03-04T20:25:02.535Z,2.55
2023-03-04T20:30:03.900Z,2.51
2023-03-04T20:35:03.025Z,2.5
2023-03-04T20:40:02.755Z,2.63
2023-03-04T20:45:02.674Z,2.56
2023-03-04T20:50:02.386Z,2.54
2023-03-04T20:55:03.150Z,2.57
2023-03-04T21:00:02.607Z,2.6
2023-03-04T21:05:02.404Z,2.58
2023-03-04T21:10:03.179Z,2.52
2023-03-04T21:15:03.008Z,2.45
2023-03-04T21:20:02.896Z,2.36
2023-03-04T21:25:02.767Z,2.42
2023-03-04T21:30:02.547Z,2.43
2023-03-04T21:35:02.439Z,2.37
2023-03-04T21:40:02.318Z,2.43
2023-03-04T21:45:03.304Z,2.46
2023-03-04T21:50:02.981Z,2.51
2023-03-04T21:55:03.256Z,2.46
2023-03-04T22:00:03.671Z,2.52
2023-03-04T22:05:02.233Z,2.54
2023-03-04T22:10:02.466Z,2.28
2023-03-04T22:15:03.059Z,2.34
2023-03-04T22:20:02.822Z,2.19
2023-03-04T22:25:02.576Z,2.16
2023-03-04T22:30:02.326Z,2.17
2023-03-04T22:35:03.042Z,2.34
2023-03-04T22:40:02.925Z,2.3
2023-03-04T22:45:02.708Z,2.28
2023-03-04T22:50:02.566Z,2.07
2023-03-04T22:55:03.316Z,2
2023-03-04T23:00:03.290Z,2.1
2023-03-04T23:05:02.277Z,2.08
2023-03-04T23:10:03.168Z,2.14
2023-03-04T23:15:02.485Z,2
2023-03-04T23:20:03.028Z,1.95
2023-03-04T23:25:02.749Z,1.84
2023-03-04T23:30:02.538Z,1.9
2023-03-04T23:35:03.199Z,1.83
2023-03-04T23:40:02.319Z,1.82
2023-03-04T23:45:03.182Z,1.75
2023-03-04T23:50:02.920Z,1.72
2023-03-04T23:55:03.198Z,1.83
